Time;durP1;ratioP1;P1;durP2;ratioP2;P2;SDS_P1;SDS_P2;PMS_P1;PMS_P2;Temp;Humidity;BMP_temperature;BMP_pressure;BME280_temperature;BME280_humidity;BME280_pressure;Samples;Min_cycle;Max_cycle;Signal;HPM_P1;HPM_P2
2022/08/06 00:00:28;;;;;;;2.63;2.42;;;;;;;;;;2064754;28;20255;-63
2022/08/06 00:01:29;;;;;;;3.45;2.47;;;;;;;;;;2065023;28;20647;-63
2022/08/06 00:02:29;;;;;;;3.35;2.58;;;;;;;;;;2065104;28;20177;-63
2022/08/06 00:03:30;;;;;;;2.67;2.47;;;;;;;;;;2064607;28;20182;-64
2022/08/06 00:04:30;;;;;;;4.38;2.80;;;;;;;;;;2064002;28;20220;-63
2022/08/06 00:05:30;;;;;;;3.38;2.60;;;;;;;;;;2064815;28;20201;-64
2022/08/06 00:06:31;;;;;;;3.05;2.85;;;;;;;;;;2065138;28;20225;-63
2022/08/06 00:07:31;;;;;;;3.10;2.80;;;;;;;;;;2063415;28;20535;-63
2022/08/06 00:08:31;;;;;;;3.70;2.70;;;;;;;;;;2064202;28;20186;-65
2022/08/06 00:09:32;;;;;;;3.28;2.90;;;;;;;;;;2064887;28;20174;-64
2022/08/06 00:10:33;;;;;;;4.78;3.00;;;;;;;;;;2064100;28;20659;-65
2022/08/06 00:11:33;;;;;;;3.55;3.15;;;;;;;;;;2064182;28;20185;-65
2022/08/06 00:12:33;;;;;;;2.60;2.40;;;;;;;;;;2064854;28;20201;-65
2022/08/06 00:13:34;;;;;;;4.57;2.80;;;;;;;;;;2064332;28;20194;-63
2022/08/06 00:14:34;;;;;;;4.97;3.20;;;;;;;;;;2063701;28;20173;-64
2022/08/06 00:15:35;;;;;;;2.88;2.47;;;;;;;;;;2064503;28;20170;-63
2022/08/06 00:16:35;;;;;;;4.10;3.20;;;;;;;;;;2065017;28;20181;-63
2022/08/06 00:17:37;;;;;;;3.78;2.78;;;;;;;;;;2064028;28;20213;-64
2022/08/06 00:18:38;;;;;;;4.28;3.17;;;;;;;;;;2063471;28;20181;-64
2022/08/06 00:19:38;;;;;;;3.95;2.63;;;;;;;;;;2065085;28;20162;-63
2022/08/06 00:20:39;;;;;;;4.22;3.05;;;;;;;;;;2064265;28;20769;-64
2022/08/06 00:21:39;;;;;;;2.88;2.67;;;;;;;;;;2064937;28;20166;-65
2022/08/06 00:22:39;;;;;;;3.75;2.75;;;;;;;;;;2066013;28;20188;-66
2022/08/06 00:23:39;;;;;;;3.38;3.08;;;;;;;;;;2066497;28;20188;-66
2022/08/06 00:24:40;;;;;;;3.25;2.95;;;;;;;;;;2069735;28;20251;-64
2022/08/06 00:25:40;;;;;;;3.42;3.05;;;;;;;;;;2067247;28;20178;-64
2022/08/06 00:26:40;;;;;;;3.58;3.15;;;;;;;;;;2066405;28;20537;-63
2022/08/06 00:27:41;;;;;;;4.03;3.58;;;;;;;;;;2066281;28;20184;-62
2022/08/06 00:28:41;;;;;;;3.67;3.45;;;;;;;;;;2066476;28;20184;-65
2022/08/06 00:29:41;;;;;;;5.13;3.28;;;;;;;;;;2066473;28;20162;-64
2022/08/06 00:30:42;;;;;;;3.38;3.08;;;;;;;;;;2066149;28;20236;-63
2022/08/06 00:31:42;;;;;;;4.32;2.97;;;;;;;;;;2066504;28;20197;-64
2022/08/06 00:32:42;;;;;;;3.35;2.85;;;;;;;;;;2066368;28;20236;-64
2022/08/06 00:33:43;;;;;;;3.15;2.88;;;;;;;;;;2065964;28;20205;-65
2022/08/06 00:34:43;;;;;;;3.40;3.20;;;;;;;;;;2064266;28;20180;-60
2022/08/06 00:35:43;;;;;;;3.20;3.00;;;;;;;;;;2066424;28;20652;-63
2022/08/06 00:36:44;;;;;;;3.55;3.30;;;;;;;;;;2066256;28;20177;-64
2022/08/06 00:37:44;;;;;;;4.05;3.58;;;;;;;;;;2066433;28;20216;-64
2022/08/06 00:38:44;;;;;;;3.13;2.92;;;;;;;;;;2066180;28;20181;-64
2022/08/06 00:39:45;;;;;;;4.05;3.20;;;;;;;;;;2065664;28;20228;-63
2022/08/06 00:40:45;;;;;;;5.00;3.70;;;;;;;;;;2065151;28;20193;-63
2022/08/06 00:41:45;;;;;;;5.95;3.00;;;;;;;;;;2057880;28;20179;-63
2022/08/06 00:42:46;;;;;;;3.83;3.00;;;;;;;;;;2062624;28;20180;-64
2022/08/06 00:43:47;;;;;;;3.78;2.85;;;;;;;;;;2066219;28;20670;-64
2022/08/06 00:44:47;;;;;;;3.22;2.63;;;;;;;;;;2065567;28;20197;-64
2022/08/06 00:45:48;;;;;;;4.75;3.10;;;;;;;;;;2066163;28;20177;-64
2022/08/06 00:46:49;;;;;;;2.90;2.80;;;;;;;;;;2066523;28;20178;-64
2022/08/06 00:47:49;;;;;;;3.50;3.30;;;;;;;;;;2065803;28;20599;-64
2022/08/06 00:48:50;;;;;;;3.47;3.15;;;;;;;;;;2065499;28;20252;-63
2022/08/06 00:49:50;;;;;;;3.55;3.20;;;;;;;;;;2066112;28;20557;-63
2022/08/06 00:50:50;;;;;;;3.70;3.20;;;;;;;;;;2065585;28;20212;-65
2022/08/06 00:51:50;;;;;;;4.28;3.03;;;;;;;;;;2065894;28;20654;-63
2022/08/06 00:52:51;;;;;;;3.80;3.50;;;;;;;;;;2066577;28;20258;-62
2022/08/06 00:53:51;;;;;;;2.95;2.75;;;;;;;;;;2065794;28;20635;-61
2022/08/06 00:54:52;;;;;;;5.50;3.50;;;;;;;;;;2064289;28;20190;-64
2022/08/06 00:55:52;;;;;;;5.13;3.55;;;;;;;;;;2066001;28;20161;-64
2022/08/06 00:56:52;;;;;;;3.55;3.25;;;;;;;;;;2065918;28;20248;-64
2022/08/06 00:57:53;;;;;;;3.10;2.80;;;;;;;;;;2065973;28;20237;-65
2022/08/06 00:58:53;;;;;;;5.45;3.55;;;;;;;;;;2068551;28;20181;-62
2022/08/06 00:59:53;;;;;;;4.00;3.13;;;;;;;;;;2073111;28;20169;-63
2022/08/06 01:00:54;;;;;;;4.80;4.30;;;;;;;;;;2066525;28;20220;-64
2022/08/06 01:01:54;;;;;;;3.55;3.35;;;;;;;;;;2066620;28;20216;-63
2022/08/06 01:02:54;;;;;;;4.10;3.80;;;;;;;;;;2065944;28;20181;-63
2022/08/06 01:03:55;;;;;;;3.75;3.47;;;;;;;;;;2066263;28;20172;-64
2022/08/06 01:04:55;;;;;;;3.90;3.60;;;;;;;;;;2066217;28;20174;-64
2022/08/06 01:05:55;;;;;;;3.40;3.20;;;;;;;;;;2066032;28;20248;-64
2022/08/06 01:06:56;;;;;;;4.25;3.75;;;;;;;;;;2066202;28;20173;-61
2022/08/06 01:07:56;;;;;;;4.05;3.40;;;;;;;;;;2066194;28;20523;-62
2022/08/06 01:08:57;;;;;;;3.20;3.03;;;;;;;;;;2066320;28;20646;-64
2022/08/06 01:09:57;;;;;;;4.85;2.92;;;;;;;;;;2065969;28;20224;-63
2022/08/06 01:10:57;;;;;;;5.20;3.15;;;;;;;;;;2065984;28;20166;-65
2022/08/06 01:11:58;;;;;;;3.17;2.95;;;;;;;;;;2065429;28;20225;-62
2022/08/06 01:12:59;;;;;;;4.28;2.85;;;;;;;;;;2057194;28;20175;-63
2022/08/06 01:13:59;;;;;;;3.50;3.05;;;;;;;;;;2064924;28;20173;-63
2022/08/06 01:14:59;;;;;;;3.90;2.88;;;;;;;;;;2066161;28;20193;-62
2022/08/06 01:16:05;;;;;;;3.95;3.53;;;;;;;;;;2065809;28;20161;-61
2022/08/06 01:17:12;;;;;;;3.13;2.83;;;;;;;;;;2066236;28;20698;-64
2022/08/06 01:18:23;;;;;;;5.00;2.97;;;;;;;;;;2064319;28;20177;-65
2022/08/06 01:19:35;;;;;;;3.35;3.13;;;;;;;;;;2063911;28;20201;-63
2022/08/06 01:20:58;;;;;;;4.63;3.00;;;;;;;;;;2065915;28;20189;-63
2022/08/06 01:22:04;;;;;;;3.80;2.85;;;;;;;;;;2066274;28;20165;-64
2022/08/06 01:23:04;;;;;;;3.03;2.83;;;;;;;;;;2066013;28;20189;-64
2022/08/06 01:24:17;;;;;;;5.03;3.33;;;;;;;;;;2065134;28;20634;-66
2022/08/06 01:25:18;;;;;;;3.05;2.78;;;;;;;;;;2063964;28;20173;-65
2022/08/06 01:26:18;;;;;;;2.63;2.42;;;;;;;;;;2066027;28;20162;-62
2022/08/06 01:27:19;;;;;;;2.70;2.50;;;;;;;;;;2065991;28;20625;-63
2022/08/06 01:28:28;;;;;;;2.90;2.65;;;;;;;;;;2064123;28;20177;-62
2022/08/06 01:29:33;;;;;;;3.33;2.70;;;;;;;;;;2065389;28;20181;-62
2022/08/06 01:30:40;;;;;;;2.92;2.72;;;;;;;;;;2065226;28;20654;-61
2022/08/06 01:31:46;;;;;;;3.33;3.03;;;;;;;;;;2066069;28;20217;-63
2022/08/06 01:32:55;;;;;;;3.08;2.45;;;;;;;;;;2065928;28;20638;-61
2022/08/06 01:34:03;;;;;;;3.35;3.05;;;;;;;;;;2064916;28;20165;-63
2022/08/06 01:35:08;;;;;;;3.55;2.90;;;;;;;;;;2065608;28;20185;-63
2022/08/06 01:36:11;;;;;;;3.60;3.15;;;;;;;;;;2065340;28;20173;-61
2022/08/06 01:37:23;;;;;;;2.67;2.47;;;;;;;;;;2065025;28;20567;-63
2022/08/06 01:38:27;;;;;;;2.40;2.30;;;;;;;;;;2066152;28;20220;-62
2022/08/06 01:39:29;;;;;;;3.28;2.63;;;;;;;;;;2065675;28;20161;-60
2022/08/06 01:40:31;;;;;;;4.38;2.95;;;;;;;;;;2066037;28;20220;-63
2022/08/06 01:41:42;;;;;;;3.40;3.10;;;;;;;;;;2065661;28;20652;-61
2022/08/06 01:42:44;;;;;;;3.05;2.65;;;;;;;;;;2065974;28;20224;-64
2022/08/06 01:43:44;;;;;;;4.07;2.60;;;;;;;;;;2065630;28;20174;-61
2022/08/06 01:44:46;;;;;;;2.83;2.72;;;;;;;;;;2064787;28;20619;-64
2022/08/06 01:45:47;;;;;;;2.90;2.70;;;;;;;;;;2065596;28;20313;-62
2022/08/06 01:46:49;;;;;;;3.05;2.88;;;;;;;;;;2065536;28;20305;-62
2022/08/06 01:47:51;;;;;;;3.20;3.00;;;;;;;;;;2065707;28;20228;-61
2022/08/06 01:48:51;;;;;;;3.10;2.90;;;;;;;;;;2065741;28;20169;-63
2022/08/06 01:49:53;;;;;;;2.90;2.70;;;;;;;;;;2065454;28;20201;-63
2022/08/06 01:50:55;;;;;;;3.30;3.00;;;;;;;;;;2065568;28;20212;-59
2022/08/06 01:51:57;;;;;;;3.10;2.90;;;;;;;;;;2065514;28;20176;-61
2022/08/06 01:52:58;;;;;;;3.00;2.80;;;;;;;;;;2065744;28;20181;-60
2022/08/06 01:54:00;;;;;;;3.58;3.05;;;;;;;;;;2065109;28;20262;-59
2022/08/06 01:55:01;;;;;;;3.25;3.03;;;;;;;;;;2065430;28;20216;-62
2022/08/06 01:56:03;;;;;;;4.20;3.33;;;;;;;;;;2065850;28;20170;-61
2022/08/06 01:57:04;;;;;;;3.42;2.90;;;;;;;;;;2067301;28;20165;-62
2022/08/06 01:58:05;;;;;;;3.00;2.78;;;;;;;;;;2066954;28;20166;-63
2022/08/06 01:59:06;;;;;;;3.10;2.90;;;;;;;;;;2064564;28;20166;-62
2022/08/06 02:00:07;;;;;;;3.80;2.97;;;;;;;;;;2066986;28;20189;-61
2022/08/06 02:01:13;;;;;;;3.25;3.00;;;;;;;;;;2066133;28;20190;-62
2022/08/06 02:02:16;;;;;;;2.95;2.75;;;;;;;;;;2066140;28;20161;-63
2022/08/06 02:03:28;;;;;;;4.53;3.10;;;;;;;;;;2065756;28;20170;-58
2022/08/06 02:04:32;;;;;;;3.13;2.70;;;;;;;;;;2065092;28;20689;-62
2022/08/06 02:05:33;;;;;;;3.03;2.83;;;;;;;;;;2065604;28;20174;-63
2022/08/06 02:06:37;;;;;;;2.88;2.70;;;;;;;;;;2066172;28;20252;-63
2022/08/06 02:07:40;;;;;;;3.20;2.92;;;;;;;;;;2065778;28;20178;-62
2022/08/06 02:08:41;;;;;;;2.90;2.70;;;;;;;;;;2066648;28;20161;-63
2022/08/06 02:09:42;;;;;;;4.82;3.15;;;;;;;;;;2066203;28;20173;-62
2022/08/06 02:10:44;;;;;;;3.22;3.03;;;;;;;;;;2066383;28;20244;-62
2022/08/06 02:11:46;;;;;;;3.90;3.05;;;;;;;;;;2066033;28;20169;-61
2022/08/06 02:12:47;;;;;;;3.22;2.97;;;;;;;;;;2065356;28;20631;-62
2022/08/06 02:13:49;;;;;;;3.38;3.17;;;;;;;;;;2064767;28;20173;-58
2022/08/06 02:15:00;;;;;;;3.65;3.40;;;;;;;;;;2065092;28;20170;-59
2022/08/06 02:16:01;;;;;;;3.28;3.05;;;;;;;;;;2065874;28;20185;-61
2022/08/06 02:17:03;;;;;;;3.05;2.80;;;;;;;;;;2065887;28;20270;-63
2022/08/06 02:18:04;;;;;;;4.10;3.05;;;;;;;;;;2064595;28;20181;-61
2022/08/06 02:19:06;;;;;;;3.30;3.00;;;;;;;;;;2064784;28;20572;-63
2022/08/06 02:20:07;;;;;;;3.00;2.88;;;;;;;;;;2064978;28;20565;-62
2022/08/06 02:21:09;;;;;;;3.13;2.88;;;;;;;;;;2064984;28;20170;-59
2022/08/06 02:22:10;;;;;;;6.07;3.17;;;;;;;;;;2065068;28;20201;-60
2022/08/06 02:23:13;;;;;;;3.45;3.15;;;;;;;;;;2065338;28;20174;-60
2022/08/06 02:24:13;;;;;;;3.85;3.50;;;;;;;;;;2064144;28;20669;-57
2022/08/06 02:25:14;;;;;;;4.00;3.08;;;;;;;;;;2064926;28;20182;-59
2022/08/06 02:26:16;;;;;;;3.13;3.03;;;;;;;;;;2056623;28;20177;-61
2022/08/06 02:27:17;;;;;;;3.90;3.45;;;;;;;;;;2064799;28;20177;-59
2022/08/06 02:28:19;;;;;;;2.95;2.75;;;;;;;;;;2056247;28;20177;-59
2022/08/06 02:29:20;;;;;;;4.47;3.10;;;;;;;;;;2059633;28;20220;-60
2022/08/06 02:30:20;;;;;;;4.28;3.88;;;;;;;;;;2065091;28;20244;-59
2022/08/06 02:31:21;;;;;;;5.07;3.85;;;;;;;;;;2065770;28;20228;-60
2022/08/06 02:32:21;;;;;;;4.22;3.72;;;;;;;;;;2065787;28;20170;-62
2022/08/06 02:33:22;;;;;;;3.67;3.38;;;;;;;;;;2065406;28;20170;-63
2022/08/06 02:34:22;;;;;;;3.97;3.67;;;;;;;;;;2063402;28;20188;-62
2022/08/06 02:35:23;;;;;;;4.88;3.63;;;;;;;;;;2064710;28;20689;-61
2022/08/06 02:36:29;;;;;;;3.28;3.00;;;;;;;;;;2064997;28;20177;-63
2022/08/06 02:37:30;;;;;;;4.63;3.85;;;;;;;;;;2065285;28;20200;-60
2022/08/06 02:38:51;;;;;;;4.43;4.03;;;;;;;;;;2065328;28;20169;-59
2022/08/06 02:39:53;;;;;;;5.25;4.03;;;;;;;;;;2064725;28;20193;-61
2022/08/06 02:40:56;;;;;;;4.50;4.20;;;;;;;;;;2065272;28;20166;-62
2022/08/06 02:42:01;;;;;;;4.22;3.92;;;;;;;;;;2064960;28;20177;-62
2022/08/06 02:43:07;;;;;;;4.60;4.20;;;;;;;;;;2064756;28;20255;-61
2022/08/06 02:44:14;;;;;;;4.70;4.25;;;;;;;;;;2063787;28;20604;-63
2022/08/06 02:45:19;;;;;;;5.07;4.68;;;;;;;;;;2064614;28;20181;-61
2022/08/06 02:46:27;;;;;;;4.97;4.60;;;;;;;;;;2064700;28;20205;-62
2022/08/06 02:47:37;;;;;;;4.53;4.05;;;;;;;;;;2065094;28;20169;-60
2022/08/06 02:48:40;;;;;;;4.32;3.78;;;;;;;;;;2064996;28;20590;-63
2022/08/06 02:49:44;;;;;;;5.68;4.07;;;;;;;;;;2065007;28;20541;-61
2022/08/06 02:50:46;;;;;;;4.35;3.95;;;;;;;;;;2065082;28;20209;-62
2022/08/06 02:51:51;;;;;;;4.72;3.60;;;;;;;;;;2065090;28;20184;-62
2022/08/06 02:52:59;;;;;;;4.30;3.90;;;;;;;;;;2065328;28;20209;-63
2022/08/06 02:54:07;;;;;;;3.83;3.50;;;;;;;;;;2064251;28;20181;-60
2022/08/06 02:55:10;;;;;;;5.75;4.22;;;;;;;;;;2065360;28;20178;-61
2022/08/06 02:56:11;;;;;;;4.50;4.10;;;;;;;;;;2065442;28;20169;-63
2022/08/06 02:57:13;;;;;;;7.18;4.18;;;;;;;;;;2065524;28;20535;-62
2022/08/06 02:58:26;;;;;;;6.40;4.05;;;;;;;;;;2065106;28;20181;-62
2022/08/06 02:59:28;;;;;;;3.78;3.40;;;;;;;;;;2064891;28;20169;-62
2022/08/06 03:00:29;;;;;;;3.90;3.65;;;;;;;;;;2065067;28;20194;-62
2022/08/06 03:01:32;;;;;;;4.22;3.92;;;;;;;;;;2065004;28;20206;-62
2022/08/06 03:02:35;;;;;;;4.30;4.00;;;;;;;;;;2065191;28;20173;-61
2022/08/06 03:03:37;;;;;;;4.60;4.00;;;;;;;;;;2064997;28;20738;-63
2022/08/06 03:04:40;;;;;;;4.20;3.80;;;;;;;;;;2064403;28;20693;-63
2022/08/06 03:05:41;;;;;;;5.63;4.82;;;;;;;;;;2065173;28;20220;-62
2022/08/06 03:06:44;;;;;;;4.45;4.00;;;;;;;;;;2064901;28;20173;-62
2022/08/06 03:07:46;;;;;;;4.15;3.85;;;;;;;;;;2065111;28;20170;-63
2022/08/06 03:08:47;;;;;;;4.32;3.97;;;;;;;;;;2065152;28;20240;-62
2022/08/06 03:09:48;;;;;;;5.07;4.28;;;;;;;;;;2064966;28;20224;-62
2022/08/06 03:10:50;;;;;;;4.22;3.92;;;;;;;;;;2065667;28;20193;-57
2022/08/06 03:11:51;;;;;;;5.15;4.30;;;;;;;;;;2065401;28;20182;-61
2022/08/06 03:12:53;;;;;;;4.72;3.63;;;;;;;;;;2065207;28;20165;-62
2022/08/06 03:13:53;;;;;;;5.75;4.28;;;;;;;;;;2064690;28;20253;-60
2022/08/06 03:14:54;;;;;;;5.90;4.15;;;;;;;;;;2063907;28;20177;-61
2022/08/06 03:15:56;;;;;;;9.57;4.30;;;;;;;;;;2056303;28;20197;-60
2022/08/06 03:16:57;;;;;;;4.72;4.38;;;;;;;;;;2064588;28;20186;-61
2022/08/06 03:18:00;;;;;;;4.70;3.58;;;;;;;;;;2065202;28;20170;-60
2022/08/06 03:19:01;;;;;;;4.38;4.00;;;;;;;;;;2065339;28;20176;-61
2022/08/06 03:20:02;;;;;;;4.53;4.22;;;;;;;;;;2065478;28;20651;-57
2022/08/06 03:21:03;;;;;;;4.10;3.83;;;;;;;;;;2065369;28;20174;-60
2022/08/06 03:22:04;;;;;;;4.57;4.18;;;;;;;;;;2065065;28;20536;-58
2022/08/06 03:23:07;;;;;;;4.38;4.00;;;;;;;;;;2065380;28;20620;-57
2022/08/06 03:24:08;;;;;;;4.03;3.80;;;;;;;;;;2064968;28;20290;-55
2022/08/06 03:25:09;;;;;;;4.90;3.80;;;;;;;;;;2066120;28;20258;-60
2022/08/06 03:26:10;;;;;;;4.35;4.00;;;;;;;;;;2065625;28;20173;-58
2022/08/06 03:27:15;;;;;;;4.07;3.78;;;;;;;;;;2058295;28;20167;-60
2022/08/06 03:28:16;;;;;;;4.30;3.90;;;;;;;;;;2058365;28;20228;-61
2022/08/06 03:29:16;;;;;;;4.22;3.92;;;;;;;;;;2066060;28;20708;-62
2022/08/06 03:30:17;;;;;;;4.25;3.72;;;;;;;;;;2066227;28;20276;-61
2022/08/06 03:31:18;;;;;;;4.63;4.25;;;;;;;;;;2065475;28;20231;-59
2022/08/06 03:32:19;;;;;;;4.50;4.20;;;;;;;;;;2066009;28;20220;-59
2022/08/06 03:33:20;;;;;;;5.13;4.40;;;;;;;;;;2065355;28;20174;-60
2022/08/06 03:34:20;;;;;;;4.95;3.67;;;;;;;;;;2056353;28;20170;-60
2022/08/06 03:35:21;;;;;;;5.85;4.47;;;;;;;;;;2065322;28;20256;-57
2022/08/06 03:36:22;;;;;;;4.32;4.03;;;;;;;;;;2065667;28;20231;-55
2022/08/06 03:37:22;;;;;;;4.93;4.63;;;;;;;;;;2064725;28;20188;-60
2022/08/06 03:38:24;;;;;;;4.40;4.07;;;;;;;;;;2064589;28;20178;-60
2022/08/06 03:39:25;;;;;;;4.70;4.28;;;;;;;;;;2065081;28;20217;-59
2022/08/06 03:40:26;;;;;;;4.90;4.50;;;;;;;;;;2065218;28;20209;-56
2022/08/06 03:41:32;;;;;;;6.90;4.60;;;;;;;;;;2064220;28;20639;-58
2022/08/06 03:42:32;;;;;;;4.88;4.47;;;;;;;;;;2063934;28;20224;-59
2022/08/06 03:43:33;;;;;;;4.95;4.30;;;;;;;;;;2059221;28;20767;-61
2022/08/06 03:44:33;;;;;;;4.70;4.40;;;;;;;;;;2064243;28;20216;-60
2022/08/06 03:45:37;;;;;;;4.63;4.32;;;;;;;;;;2064943;28;20594;-60
2022/08/06 03:46:40;;;;;;;6.47;4.43;;;;;;;;;;2065043;28;20188;-57
2022/08/06 03:47:53;;;;;;;5.22;4.70;;;;;;;;;;2064988;28;20165;-59
2022/08/06 03:48:53;;;;;;;5.55;4.22;;;;;;;;;;2064848;28;20177;-61
2022/08/06 03:50:01;;;;;;;4.60;4.20;;;;;;;;;;2064584;28;20169;-60
2022/08/06 03:51:03;;;;;;;5.07;4.57;;;;;;;;;;2062396;28;20169;-60
2022/08/06 03:52:05;;;;;;;5.07;4.50;;;;;;;;;;2065054;28;20221;-58
2022/08/06 03:53:08;;;;;;;5.32;4.93;;;;;;;;;;2064987;28;20188;-62
2022/08/06 03:54:09;;;;;;;5.28;4.70;;;;;;;;;;2064154;28;20166;-62
2022/08/06 03:55:13;;;;;;;5.53;5.03;;;;;;;;;;2065080;28;20193;-60
2022/08/06 03:56:15;;;;;;;4.35;4.13;;;;;;;;;;2064437;28;20170;-62
2022/08/06 03:57:18;;;;;;;5.38;4.18;;;;;;;;;;2065195;28;20165;-61
2022/08/06 03:58:19;;;;;;;4.72;4.32;;;;;;;;;;2066320;28;20169;-61
2022/08/06 03:59:20;;;;;;;5.15;4.60;;;;;;;;;;2066631;28;20536;-60
2022/08/06 04:00:23;;;;;;;4.93;4.45;;;;;;;;;;2062624;28;20229;-62
2022/08/06 04:01:26;;;;;;;5.53;5.20;;;;;;;;;;2065566;28;20193;-62
2022/08/06 04:02:37;;;;;;;4.80;4.30;;;;;;;;;;2058477;28;20225;-60
2022/08/06 04:03:38;;;;;;;6.35;4.00;;;;;;;;;;2058571;28;20162;-60
2022/08/06 04:04:38;;;;;;;4.68;4.30;;;;;;;;;;2057592;28;20248;-60
2022/08/06 04:05:40;;;;;;;5.38;4.88;;;;;;;;;;2058569;28;20185;-61
2022/08/06 04:06:42;;;;;;;5.40;4.90;;;;;;;;;;2061655;28;20165;-62
2022/08/06 04:07:43;;;;;;;4.95;4.55;;;;;;;;;;2066140;28;20178;-62
2022/08/06 04:08:44;;;;;;;4.75;4.32;;;;;;;;;;2066550;28;20181;-62
2022/08/06 04:09:44;;;;;;;5.53;5.15;;;;;;;;;;2066372;28;20169;-62
2022/08/06 04:10:48;;;;;;;5.22;4.82;;;;;;;;;;2066384;28;20355;-61
2022/08/06 04:11:49;;;;;;;5.10;4.70;;;;;;;;;;2066325;28;20173;-62
2022/08/06 04:12:49;;;;;;;5.45;4.95;;;;;;;;;;2066649;28;20212;-62
2022/08/06 04:13:49;;;;;;;9.45;4.80;;;;;;;;;;2066664;28;20180;-61
2022/08/06 04:14:50;;;;;;;6.53;4.70;;;;;;;;;;2065781;28;20208;-61
2022/08/06 04:15:52;;;;;;;6.50;4.55;;;;;;;;;;2066473;28;20173;-62
2022/08/06 04:16:53;;;;;;;5.60;5.07;;;;;;;;;;2066360;28;20562;-61
2022/08/06 04:17:54;;;;;;;5.75;5.18;;;;;;;;;;2065708;28;20260;-60
2022/08/06 04:18:55;;;;;;;8.10;5.30;;;;;;;;;;2061226;28;20171;-61
2022/08/06 04:19:56;;;;;;;5.68;5.05;;;;;;;;;;2063221;28;20666;-62
2022/08/06 04:21:01;;;;;;;7.28;5.20;;;;;;;;;;2066409;28;20639;-60
2022/08/06 04:22:01;;;;;;;6.40;5.90;;;;;;;;;;2066385;28;20561;-61
2022/08/06 04:23:02;;;;;;;5.68;4.82;;;;;;;;;;2066466;28;20177;-64
2022/08/06 04:24:02;;;;;;;4.95;4.57;;;;;;;;;;2064880;28;20654;-62
2022/08/06 04:25:03;;;;;;;5.82;5.30;;;;;;;;;;2057620;28;20198;-63
2022/08/06 04:26:06;;;;;;;6.72;5.30;;;;;;;;;;2065780;28;20170;-64
2022/08/06 04:27:06;;;;;;;5.47;4.97;;;;;;;;;;2057877;28;20182;-63
2022/08/06 04:28:08;;;;;;;5.28;4.53;;;;;;;;;;2064223;28;20622;-63
2022/08/06 04:29:11;;;;;;;5.20;4.70;;;;;;;;;;2066457;28;20154;-63
2022/08/06 04:30:12;;;;;;;6.38;5.82;;;;;;;;;;2066249;28;20174;-63
2022/08/06 04:31:12;;;;;;;6.15;5.55;;;;;;;;;;2066303;28;20177;-63
2022/08/06 04:32:14;;;;;;;5.78;5.18;;;;;;;;;;2060133;28;20189;-63
2022/08/06 04:33:15;;;;;;;6.80;5.70;;;;;;;;;;2058640;28;20166;-61
2022/08/06 04:34:23;;;;;;;6.07;5.65;;;;;;;;;;2057806;28;20189;-63
2022/08/06 04:35:24;;;;;;;8.43;5.78;;;;;;;;;;2058558;28;20171;-61
2022/08/06 04:36:24;;;;;;;5.15;4.72;;;;;;;;;;2059415;28;20643;-61
2022/08/06 04:37:25;;;;;;;7.95;5.38;;;;;;;;;;2060186;28;20279;-60
2022/08/06 04:38:25;;;;;;;5.40;4.95;;;;;;;;;;2060707;28;20170;-61
2022/08/06 04:39:26;;;;;;;5.75;5.25;;;;;;;;;;2060920;28;20162;-60
2022/08/06 04:40:27;;;;;;;5.85;5.35;;;;;;;;;;2059318;28;20679;-61
2022/08/06 04:41:27;;;;;;;7.10;5.45;;;;;;;;;;2058589;28;20166;-58
2022/08/06 04:42:28;;;;;;;6.43;5.40;;;;;;;;;;2058278;28;20170;-60
2022/08/06 04:43:29;;;;;;;6.20;5.20;;;;;;;;;;2058680;28;20687;-57
2022/08/06 04:44:30;;;;;;;7.32;5.00;;;;;;;;;;2064460;28;20201;-62
2022/08/06 04:45:30;;;;;;;6.95;5.25;;;;;;;;;;2066402;28;20181;-61
2022/08/06 04:46:32;;;;;;;5.35;4.90;;;;;;;;;;2067140;28;20697;-60
2022/08/06 04:47:32;;;;;;;6.40;5.90;;;;;;;;;;2066904;28;20249;-60
2022/08/06 04:48:33;;;;;;;6.25;5.65;;;;;;;;;;2066082;28;20182;-61
2022/08/06 04:49:33;;;;;;;5.78;5.25;;;;;;;;;;2066297;28;20205;-57
2022/08/06 04:50:34;;;;;;;5.82;5.40;;;;;;;;;;2065514;28;20235;-61
2022/08/06 04:51:35;;;;;;;7.97;5.68;;;;;;;;;;2064161;28;20204;-57
2022/08/06 04:52:35;;;;;;;6.40;5.25;;;;;;;;;;2065080;28;20181;-61
2022/08/06 04:53:37;;;;;;;6.88;6.07;;;;;;;;;;2064621;28;20186;-58
2022/08/06 04:54:40;;;;;;;6.70;6.10;;;;;;;;;;2064897;28;20181;-62
2022/08/06 04:55:41;;;;;;;6.53;5.93;;;;;;;;;;2061060;28;20656;-60
2022/08/06 04:56:43;;;;;;;6.93;6.32;;;;;;;;;;2068338;28;20181;-61
2022/08/06 04:57:43;;;;;;;7.10;5.85;;;;;;;;;;2061026;28;20623;-59
2022/08/06 04:58:43;;;;;;;5.57;5.18;;;;;;;;;;2066913;28;20173;-53
2022/08/06 04:59:44;;;;;;;6.57;5.63;;;;;;;;;;2063248;28;20221;-62
2022/08/06 05:00:45;;;;;;;5.90;5.35;;;;;;;;;;2065896;28;20273;-59
2022/08/06 05:01:46;;;;;;;5.85;5.35;;;;;;;;;;2063046;28;20228;-60
2022/08/06 05:02:46;;;;;;;6.45;5.38;;;;;;;;;;2061412;28;20162;-61
2022/08/06 05:03:47;;;;;;;5.80;5.15;;;;;;;;;;2063751;28;20193;-60
2022/08/06 05:04:53;;;;;;;5.70;5.20;;;;;;;;;;2065677;28;20205;-59
2022/08/06 05:06:02;;;;;;;5.93;5.43;;;;;;;;;;2066339;28;20154;-62
2022/08/06 05:07:09;;;;;;;5.82;5.43;;;;;;;;;;2060326;28;20635;-59
2022/08/06 05:08:10;;;;;;;5.55;5.05;;;;;;;;;;2062674;28;20173;-57
2022/08/06 05:09:20;;;;;;;6.03;5.32;;;;;;;;;;2061999;28;20190;-57
2022/08/06 05:10:21;;;;;;;5.30;4.90;;;;;;;;;;2063703;28;20675;-66
2022/08/06 05:11:26;;;;;;;6.00;5.50;;;;;;;;;;2062656;28;20170;-56
2022/08/06 05:12:35;;;;;;;5.75;5.25;;;;;;;;;;2063684;28;20184;-60
2022/08/06 05:13:37;;;;;;;9.82;5.28;;;;;;;;;;2060867;28;20174;-60
2022/08/06 05:14:43;;;;;;;6.28;5.53;;;;;;;;;;2059989;28;20175;-61
2022/08/06 05:15:48;;;;;;;6.32;5.80;;;;;;;;;;2061759;28;20173;-59
2022/08/06 05:16:49;;;;;;;6.18;5.65;;;;;;;;;;2062874;28;20174;-61
2022/08/06 05:17:53;;;;;;;5.93;5.43;;;;;;;;;;2063160;28;20169;-60
2022/08/06 05:18:57;;;;;;;8.50;5.63;;;;;;;;;;2066714;28;20202;-62
2022/08/06 05:20:00;;;;;;;7.50;5.40;;;;;;;;;;2062007;28;20237;-59
2022/08/06 05:21:01;;;;;;;8.23;5.70;;;;;;;;;;2064632;28;20571;-62
2022/08/06 05:22:03;;;;;;;6.15;5.65;;;;;;;;;;2065671;28;20209;-61
2022/08/06 05:23:09;;;;;;;7.47;5.50;;;;;;;;;;2066344;28;20228;-60
2022/08/06 05:24:09;;;;;;;7.47;6.13;;;;;;;;;;2065371;28;20257;-62
2022/08/06 05:25:10;;;;;;;6.57;6.00;;;;;;;;;;2066123;28;20241;-61
2022/08/06 05:26:11;;;;;;;7.18;5.72;;;;;;;;;;2064573;28;20654;-61
2022/08/06 05:27:12;;;;;;;7.65;6.38;;;;;;;;;;2058916;28;20193;-60
2022/08/06 05:28:12;;;;;;;7.03;6.38;;;;;;;;;;2059004;28;20584;-61
2022/08/06 05:29:17;;;;;;;7.20;5.90;;;;;;;;;;2057434;28;20235;-59
2022/08/06 05:30:17;;;;;;;6.72;5.63;;;;;;;;;;2058077;28;20243;-62
2022/08/06 05:31:31;;;;;;;6.38;5.78;;;;;;;;;;2057348;28;20170;-62
2022/08/06 05:32:39;;;;;;;6.47;5.65;;;;;;;;;;2061267;28;20572;-62
2022/08/06 05:33:40;;;;;;;8.15;6.28;;;;;;;;;;2065820;28;20166;-60
2022/08/06 05:34:40;;;;;;;6.72;6.03;;;;;;;;;;2065237;28;20165;-61
2022/08/06 05:35:41;;;;;;;6.45;5.35;;;;;;;;;;2065630;28;20180;-61
2022/08/06 05:36:41;;;;;;;6.38;5.78;;;;;;;;;;2066051;28;20181;-60
2022/08/06 05:37:41;;;;;;;6.60;4.88;;;;;;;;;;2065946;28;20185;-62
2022/08/06 05:38:42;;;;;;;5.68;5.20;;;;;;;;;;2065821;28;20693;-62
2022/08/06 05:39:42;;;;;;;5.30;4.80;;;;;;;;;;2065968;28;20197;-61
2022/08/06 05:40:42;;;;;;;9.05;5.65;;;;;;;;;;2065719;28;20193;-62
2022/08/06 05:41:43;;;;;;;6.00;5.50;;;;;;;;;;2064203;28;20948;-62
2022/08/06 05:42:43;;;;;;;6.25;5.20;;;;;;;;;;2065753;28;20746;-61
2022/08/06 05:43:44;;;;;;;5.40;4.90;;;;;;;;;;2065788;28;20591;-60
2022/08/06 05:44:45;;;;;;;5.90;5.32;;;;;;;;;;2064240;28;20712;-61
2022/08/06 05:45:46;;;;;;;7.32;5.70;;;;;;;;;;2065850;28;20169;-60
2022/08/06 05:46:51;;;;;;;6.15;4.90;;;;;;;;;;2065163;28;20612;-61
2022/08/06 05:47:52;;;;;;;5.28;4.78;;;;;;;;;;2062953;28;20166;-61
2022/08/06 05:49:01;;;;;;;5.25;4.75;;;;;;;;;;2063929;28;20174;-64
2022/08/06 05:51:37;;;;;;;6.03;5.53;;;;;;;;;;2052576;28;20209;-63
2022/08/06 05:52:42;;;;;;;6.93;5.70;;;;;;;;;;2037941;28;20183;-66
2022/08/06 05:53:45;;;;;;;5.93;5.32;;;;;;;;;;2050529;28;20179;-65
2022/08/06 05:54:46;;;;;;;5.75;5.40;;;;;;;;;;2051315;28;20181;-61
2022/08/06 05:55:52;;;;;;;6.00;5.50;;;;;;;;;;2053412;28;20596;-65
2022/08/06 05:56:58;;;;;;;6.32;5.45;;;;;;;;;;2045922;29;20206;-65
2022/08/06 05:58:02;;;;;;;6.13;5.50;;;;;;;;;;2042106;29;20152;-64
2022/08/06 05:59:05;;;;;;;6.13;5.60;;;;;;;;;;2049111;28;20187;-65
2022/08/06 06:00:11;;;;;;;5.55;5.05;;;;;;;;;;2050699;28;20181;-65
2022/08/06 06:01:12;;;;;;;6.45;5.00;;;;;;;;;;2048973;29;20534;-65
2022/08/06 06:02:13;;;;;;;5.20;4.80;;;;;;;;;;2041957;29;20195;-67
2022/08/06 06:03:15;;;;;;;6.30;5.20;;;;;;;;;;2042187;29;20254;-68
2022/08/06 06:04:15;;;;;;;5.35;4.78;;;;;;;;;;2041076;29;20222;-65
2022/08/06 06:05:17;;;;;;;5.57;4.97;;;;;;;;;;2042006;29;20194;-67
2022/08/06 06:06:17;;;;;;;5.30;4.75;;;;;;;;;;2042185;29;20175;-66
2022/08/06 06:07:17;;;;;;;5.38;4.97;;;;;;;;;;2041452;29;20175;-64
2022/08/06 06:08:19;;;;;;;5.60;5.18;;;;;;;;;;2048856;29;20162;-65
2022/08/06 06:09:20;;;;;;;7.47;5.63;;;;;;;;;;2050043;29;20186;-64
2022/08/06 06:10:22;;;;;;;7.07;5.15;;;;;;;;;;2049932;29;20246;-65
2022/08/06 06:11:22;;;;;;;7.70;5.53;;;;;;;;;;2049973;29;20178;-66
2022/08/06 06:12:23;;;;;;;6.00;5.50;;;;;;;;;;2044418;29;20674;-66
2022/08/06 06:13:24;;;;;;;5.28;4.82;;;;;;;;;;2042253;29;20672;-65
2022/08/06 06:14:28;;;;;;;6.68;4.90;;;;;;;;;;2041416;29;20190;-65